createdAt,value
2023-01-30T00:04:46.841Z,65.50
2023-01-30T00:09:47.874Z,70.10
2023-01-30T00:14:46.640Z,68.30
2023-01-30T00:19:46.498Z,61.40
2023-01-30T00:24:46.580Z,57.60
2023-01-30T00:29:57.743Z,64.40
2023-01-30T00:34:47.364Z,62.20
2023-01-30T00:39:46.406Z,68.50
2023-01-30T00:44:46.306Z,66.80
2023-01-30T00:49:46.363Z,59.70
2023-01-30T00:54:46.244Z,59.60
2023-01-30T00:59:46.211Z,60.20
2023-01-30T01:04:48.225Z,60.80
2023-01-30T01:09:46.074Z,65.90
2023-01-30T01:14:45.971Z,64.10
2023-01-30T01:19:45.950Z,59.60
2023-01-30T01:24:45.860Z,58.60
2023-01-30T01:29:45.825Z,58.30
2023-01-30T01:34:45.871Z,64.50
2023-01-30T01:39:45.848Z,62.00
2023-01-30T01:44:45.662Z,61.80
2023-01-30T01:49:45.541Z,68.70
2023-01-30T01:54:45.642Z,69.50
2023-01-30T01:59:45.589Z,67.30
2023-01-30T02:04:45.433Z,75.20
2023-01-30T02:09:54.204Z,74.80
2023-01-30T02:14:45.391Z,75.00
2023-01-30T02:19:45.279Z,61.90
2023-01-30T02:24:45.340Z,71.70
2023-01-30T02:29:45.290Z,72.50
2023-01-30T02:34:45.216Z,61.70
2023-01-30T02:39:46.183Z,62.70
2023-01-30T02:44:44.996Z,65.60
2023-01-30T02:49:48.346Z,63.90
2023-01-30T02:54:44.966Z,62.50
2023-01-30T02:59:44.996Z,68.20
2023-01-30T03:04:44.812Z,65.30
2023-01-30T03:09:44.834Z,63.20
2023-01-30T03:14:44.814Z,55.80
2023-01-30T03:19:44.628Z,59.30
2023-01-30T03:24:44.718Z,60.20
2023-01-30T03:29:44.756Z,57.60
2023-01-30T03:34:45.690Z,54.40
2023-01-30T03:39:44.477Z,54.10
2023-01-30T03:44:44.438Z,57.30
2023-01-30T03:49:44.400Z,59.00
2023-01-30T03:54:44.262Z,60.80
2023-01-30T03:59:44.254Z,61.60
2023-01-30T04:04:44.148Z,56.80
2023-01-30T04:09:44.290Z,59.80
2023-01-30T04:14:44.239Z,56.20
2023-01-30T04:19:45.111Z,61.70
2023-01-30T04:24:44.014Z,58.50
2023-01-30T04:29:43.977Z,65.00
2023-01-30T04:34:45.945Z,58.90
2023-01-30T04:39:43.768Z,53.70
2023-01-30T04:44:43.739Z,60.10
2023-01-30T04:49:43.774Z,52.30
2023-01-30T04:54:43.832Z,62.50
2023-01-30T04:59:43.668Z,54.00
2023-01-30T05:04:43.642Z,50.30
2023-01-30T05:09:45.754Z,42.10
2023-01-30T05:14:43.572Z,46.10
2023-01-30T05:19:43.672Z,38.00
2023-01-30T05:24:43.526Z,45.00
2023-01-30T05:29:43.550Z,45.90
2023-01-30T05:34:43.351Z,34.40
2023-01-30T05:39:43.278Z,41.90
2023-01-30T05:44:43.248Z,49.20
2023-01-30T05:49:43.196Z,35.00
2023-01-30T05:54:43.161Z,42.10
2023-01-30T05:59:43.281Z,41.50
2023-01-30T06:04:43.071Z,47.20
2023-01-30T06:09:44.113Z,46.90
2023-01-30T06:14:43.016Z,45.20
2023-01-30T06:19:42.876Z,39.10
2023-01-30T06:24:42.742Z,42.20
2023-01-30T06:29:42.714Z,39.60
2023-01-30T06:34:42.588Z,36.10
2023-01-30T06:39:42.726Z,39.00
2023-01-30T06:44:42.452Z,29.00
2023-01-30T06:49:43.412Z,34.30
2023-01-30T06:54:42.372Z,31.10
2023-01-30T06:59:42.306Z,33.60
2023-01-30T07:04:42.141Z,29.70
2023-01-30T07:09:42.189Z,31.80
2023-01-30T07:14:42.059Z,37.30
2023-01-30T07:19:41.985Z,30.90
2023-01-30T07:24:41.978Z,37.20
2023-01-30T07:29:41.929Z,39.20
2023-01-30T07:34:41.803Z,41.60
2023-01-30T07:39:41.883Z,38.00
2023-01-30T07:44:41.803Z,39.10
2023-01-30T07:49:41.710Z,29.40
2023-01-30T07:54:41.986Z,31.60
2023-01-30T07:59:41.579Z,33.80
2023-01-30T08:04:41.565Z,28.80
2023-01-30T08:09:41.471Z,32.40
2023-01-30T08:14:50.233Z,24.20
2023-01-30T08:19:41.365Z,24.90
2023-01-30T08:24:41.320Z,26.60
2023-01-30T08:29:41.334Z,24.30
2023-01-30T08:34:41.266Z,28.30
2023-01-30T08:39:41.275Z,34.90
2023-01-30T08:44:41.222Z,28.30
2023-01-30T08:49:41.163Z,22.20
2023-01-30T08:54:41.022Z,23.70
2023-01-30T08:59:40.936Z,22.50
2023-01-30T09:04:41.127Z,21.90
2023-01-30T09:09:40.823Z,25.10
2023-01-30T09:14:40.785Z,17.30
2023-01-30T09:19:40.767Z,24.40
2023-01-30T09:24:40.683Z,21.00
2023-01-30T09:29:40.658Z,27.70
2023-01-30T09:34:40.555Z,21.20
2023-01-30T09:39:40.521Z,17.30
2023-01-30T09:44:40.483Z,24.60
2023-01-30T09:49:40.581Z,22.10
2023-01-30T09:54:40.415Z,24.70
2023-01-30T09:59:40.319Z,21.40
2023-01-30T10:04:42.032Z,23.10
2023-01-30T10:09:42.260Z,25.70
2023-01-30T10:14:40.153Z,21.30
2023-01-30T10:19:40.246Z,22.90
2023-01-30T10:24:40.724Z,22.80
2023-01-30T10:29:40.061Z,26.30
2023-01-30T10:34:40.377Z,26.50
2023-01-30T10:39:49.652Z,25.20
2023-01-30T10:44:40.795Z,32.60
2023-01-30T10:49:39.714Z,23.20
2023-01-30T10:54:39.952Z,22.20
2023-01-30T10:59:40.568Z,23.60
2023-01-30T11:04:39.673Z,19.50
2023-01-30T11:09:39.583Z,28.00
2023-01-30T11:14:41.909Z,23.20
2023-01-30T11:19:41.941Z,19.90
2023-01-30T11:24:39.373Z,20.70
2023-01-30T11:29:39.315Z,27.10
2023-01-30T11:34:39.581Z,24.20
2023-01-30T11:39:40.128Z,19.70
2023-01-30T11:44:39.216Z,20.40
2023-01-30T11:49:46.115Z,24.80
2023-01-30T11:54:40.165Z,14.50
2023-01-30T11:59:39.054Z,21.80
2023-01-30T12:04:39.062Z,18.40
2023-01-30T12:09:40.994Z,21.70
2023-01-30T12:14:38.964Z,17.00
2023-01-30T12:19:38.940Z,23.80
2023-01-30T12:24:38.927Z,17.30
2023-01-30T12:29:41.038Z,18.60
2023-01-30T12:34:38.750Z,19.50
2023-01-30T12:39:38.692Z,19.10
2023-01-30T12:44:38.443Z,17.90
2023-01-30T12:49:38.490Z,26.10
2023-01-30T12:54:39.722Z,17.90
2023-01-30T12:59:38.334Z,16.30
2023-01-30T13:04:46.986Z,20.90
2023-01-30T13:09:39.201Z,25.80
2023-01-30T13:14:38.184Z,15.30
2023-01-30T13:19:41.180Z,21.60
2023-01-30T13:24:38.024Z,22.60
2023-01-30T13:29:38.002Z,20.00
2023-01-30T13:34:38.982Z,33.80
2023-01-30T13:39:41.209Z,26.80
2023-01-30T13:44:39.391Z,23.90
2023-01-30T13:49:37.768Z,26.60
2023-01-30T13:54:37.753Z,18.10
2023-01-30T13:59:37.677Z,22.30
2023-01-30T14:04:37.659Z,28.10
2023-01-30T14:09:38.697Z,20.80
2023-01-30T14:14:37.515Z,24.50
2023-01-30T14:19:37.465Z,25.00
2023-01-30T14:24:37.415Z,27.20
2023-01-30T14:29:37.396Z,27.90
2023-01-30T14:34:37.288Z,30.40
2023-01-30T14:39:37.313Z,20.80
2023-01-30T14:44:37.222Z,21.20
2023-01-30T14:49:37.160Z,28.60
2023-01-30T14:54:42.173Z,28.10
2023-01-30T14:59:38.015Z,26.50
2023-01-30T15:04:36.979Z,26.50
2023-01-30T15:09:36.916Z,20.10
2023-01-30T15:14:36.976Z,25.90
2023-01-30T15:19:36.812Z,22.00
2023-01-30T15:24:37.831Z,25.50
2023-01-30T15:29:36.669Z,33.90
2023-01-30T15:34:36.671Z,27.40
2023-01-30T15:39:36.599Z,30.00
2023-01-30T15:44:36.532Z,24.90
2023-01-30T15:49:36.557Z,24.50
2023-01-30T15:54:36.579Z,25.40
2023-01-30T15:59:36.446Z,23.80
2023-01-30T16:04:36.370Z,25.20
2023-01-30T16:09:36.239Z,28.90
2023-01-30T16:14:36.181Z,21.80
2023-01-30T16:19:36.112Z,21.40
2023-01-30T16:24:36.305Z,27.30
2023-01-30T16:29:36.120Z,28.30
2023-01-30T16:34:36.011Z,32.20
2023-01-30T16:39:35.897Z,32.40
2023-01-30T16:44:35.850Z,24.40
2023-01-30T16:49:35.781Z,23.10
2023-01-30T16:54:35.854Z,25.50
2023-01-30T16:59:35.677Z,30.80
2023-01-30T17:04:35.825Z,26.40
2023-01-30T17:09:35.603Z,31.40
2023-01-30T17:14:35.615Z,33.10
2023-01-30T17:19:35.511Z,24.90
2023-01-30T17:24:35.458Z,30.90
2023-01-30T17:29:43.498Z,35.20
2023-01-30T17:34:36.272Z,28.50
2023-01-30T17:39:35.330Z,32.10
2023-01-30T17:44:35.282Z,26.90
2023-01-30T17:49:35.197Z,35.80
2023-01-30T17:54:35.263Z,39.90
2023-01-30T17:59:35.049Z,27.40
2023-01-30T18:04:36.041Z,28.80
2023-01-30T18:09:34.986Z,36.20
2023-01-30T18:14:35.005Z,30.80
2023-01-30T18:19:34.858Z,28.70
2023-01-30T18:24:34.803Z,43.60
2023-01-30T18:29:34.819Z,41.30
2023-01-30T18:34:34.690Z,31.60
2023-01-30T18:39:34.658Z,35.90
2023-01-30T18:44:34.929Z,38.70
2023-01-30T18:49:34.527Z,29.30
2023-01-30T18:54:34.495Z,34.20
2023-01-30T18:59:34.403Z,37.50
2023-01-30T19:04:34.344Z,31.10
2023-01-30T19:09:34.324Z,30.10
2023-01-30T19:14:34.413Z,33.30
2023-01-30T19:19:34.316Z,35.60
2023-01-30T19:24:34.118Z,32.90
2023-01-30T19:29:34.085Z,29.30
2023-01-30T19:34:34.103Z,32.80
2023-01-30T19:39:34.192Z,36.10
2023-01-30T19:44:34.047Z,30.90
2023-01-30T19:49:36.509Z,30.60
2023-01-30T19:54:33.783Z,31.10
2023-01-30T19:59:33.857Z,28.60
2023-01-30T20:04:33.755Z,37.60
2023-01-30T20:09:33.694Z,30.30
2023-01-30T20:14:33.594Z,35.90
2023-01-30T20:19:33.594Z,30.50
2023-01-30T20:24:33.553Z,30.20
2023-01-30T20:29:33.453Z,41.10
2023-01-30T20:34:33.407Z,30.30
2023-01-30T20:39:33.376Z,24.40
2023-01-30T20:44:33.326Z,38.50
2023-01-30T20:49:33.213Z,31.90
2023-01-30T20:54:33.252Z,42.30
2023-01-30T20:59:33.176Z,31.30
2023-01-30T21:04:33.123Z,44.70
2023-01-30T21:09:33.022Z,41.70
2023-01-30T21:14:32.995Z,37.70
2023-01-30T21:19:32.895Z,61.70
2023-01-30T21:24:32.873Z,31.80
2023-01-30T21:29:32.814Z,28.00
2023-01-30T21:34:32.727Z,35.30
2023-01-30T21:39:32.672Z,37.60
2023-01-30T21:44:32.623Z,30.70
2023-01-30T21:49:32.572Z,22.10
2023-01-30T21:54:32.555Z,38.20
2023-01-30T21:59:32.464Z,33.50
2023-01-30T22:04:32.424Z,37.70
2023-01-30T22:09:41.225Z,38.90
2023-01-30T22:14:32.335Z,28.00
2023-01-30T22:19:32.238Z,28.80
2023-01-30T22:24:32.279Z,31.60
2023-01-30T22:29:32.336Z,34.60
2023-01-30T22:34:34.848Z,24.80
2023-01-30T22:39:32.377Z,28.40
2023-01-30T22:44:31.982Z,33.40
2023-01-30T22:49:31.935Z,26.30
2023-01-30T22:54:40.725Z,33.90
2023-01-30T22:59:31.790Z,37.20
2023-01-30T23:04:31.801Z,32.30
2023-01-30T23:09:31.728Z,35.20
2023-01-30T23:14:31.670Z,35.30
2023-01-30T23:19:31.599Z,29.80
2023-01-30T23:24:31.544Z,34.00
2023-01-30T23:29:31.550Z,34.10
2023-01-30T23:34:31.518Z,36.90
2023-01-30T23:39:31.492Z,35.10
2023-01-30T23:44:31.467Z,31.30
2023-01-30T23:49:31.361Z,39.20
2023-01-30T23:54:31.358Z,34.80
2023-01-30T23:59:36.259Z,37.30
